createdAt,value
2022-09-11T00:01:47.539Z,20.90
2022-09-11T00:04:49.132Z,22.97
2022-09-11T00:07:50.808Z,21.80
2022-09-11T00:10:52.844Z,21.13
2022-09-11T00:13:55.127Z,23.47
2022-09-11T00:16:57.293Z,21.60
2022-09-11T00:20:00.959Z,25.43
2022-09-11T00:23:05.211Z,25.23
2022-09-11T00:26:06.881Z,24.57
2022-09-11T00:29:08.802Z,28.27
2022-09-11T00:32:11.083Z,28.13
2022-09-11T00:35:12.959Z,38.53
2022-09-11T00:38:17.453Z,30.03
2022-09-11T00:41:33.375Z,30.77
2022-09-11T00:44:34.929Z,25.20
2022-09-11T00:47:37.212Z,37.17
2022-09-11T00:50:38.876Z,33.90
2022-09-11T00:53:40.795Z,28.33
2022-09-11T00:56:43.210Z,31.43
2022-09-11T00:59:47.330Z,29.60
2022-09-11T01:02:50.213Z,29.63
2022-09-11T01:05:53.105Z,27.10
2022-09-11T01:08:54.722Z,24.77
2022-09-11T01:12:10.541Z,27.87
2022-09-11T01:15:15.379Z,29.73
2022-09-11T01:18:21.757Z,31.30
2022-09-11T01:21:26.377Z,22.73
2022-09-11T01:24:34.164Z,24.87
2022-09-11T01:27:38.142Z,26.27
2022-09-11T01:30:41.357Z,22.67
2022-09-11T01:33:46.072Z,25.70
2022-09-11T01:36:57.924Z,25.20
2022-09-11T01:40:01.999Z,25.10
2022-09-11T01:43:11.636Z,22.17
2022-09-11T01:46:16.542Z,27.87
2022-09-11T01:49:29.261Z,35.60
2022-09-11T01:52:32.249Z,37.87
2022-09-11T01:55:39.442Z,32.23
2022-09-11T01:58:41.470Z,37.60
2022-09-11T02:01:48.042Z,44.30
2022-09-11T02:04:58.799Z,30.13
2022-09-11T02:08:06.156Z,34.00
2022-09-11T02:11:09.375Z,31.43
2022-09-11T02:14:21.268Z,36.10
2022-09-11T02:17:29.127Z,44.77
2022-09-11T02:20:31.452Z,26.43
2022-09-11T02:23:33.234Z,36.63
2022-09-11T02:26:39.899Z,23.90
2022-09-11T02:29:42.099Z,25.43
2022-09-11T02:32:44.062Z,23.20
2022-09-11T02:35:49.964Z,25.30
2022-09-11T02:39:03.992Z,25.13
2022-09-11T02:42:24.638Z,23.63
2022-09-11T02:45:28.679Z,23.47
2022-09-11T02:48:37.808Z,23.67
2022-09-11T02:51:46.695Z,26.97
2022-09-11T02:55:02.163Z,21.67
2022-09-11T02:58:15.724Z,22.07
2022-09-11T03:01:18.852Z,26.00
2022-09-11T03:04:24.629Z,22.63
2022-09-11T03:07:27.675Z,25.70
2022-09-11T03:10:29.472Z,24.80
2022-09-11T03:13:32.464Z,23.43
2022-09-11T03:16:36.878Z,22.87
2022-09-11T03:19:38.611Z,21.77
2022-09-11T03:22:40.450Z,21.80
2022-09-11T03:25:42.138Z,24.77
2022-09-11T03:28:46.431Z,26.53
2022-09-11T03:31:50.033Z,24.07
2022-09-11T03:34:52.191Z,25.60
2022-09-11T03:37:55.646Z,25.97
2022-09-11T03:40:58.418Z,25.37
2022-09-11T03:44:00.011Z,23.23
2022-09-11T03:47:03.613Z,23.17
2022-09-11T03:50:05.380Z,27.67
2022-09-11T03:53:07.496Z,24.17
2022-09-11T03:56:09.161Z,23.47
2022-09-11T03:59:16.992Z,23.70
2022-09-11T04:02:19.792Z,22.10
2022-09-11T04:05:24.116Z,26.73
2022-09-11T04:08:27.895Z,26.67
2022-09-11T04:11:35.560Z,23.37
2022-09-11T04:14:40.422Z,25.00
2022-09-11T04:17:42.144Z,24.30
2022-09-11T04:20:45.525Z,22.30
2022-09-11T04:23:51.011Z,24.20
2022-09-11T04:26:55.310Z,23.90
2022-09-11T04:30:02.275Z,23.47
2022-09-11T04:33:05.371Z,23.97
2022-09-11T04:36:08.302Z,25.30
2022-09-11T04:39:11.130Z,22.93
2022-09-11T04:42:12.789Z,23.93
2022-09-11T04:45:14.932Z,23.73
2022-09-11T04:48:16.703Z,21.93
2022-09-11T04:51:32.144Z,27.53
2022-09-11T04:54:34.552Z,27.33
2022-09-11T04:57:36.279Z,25.13
2022-09-11T05:00:38.139Z,28.50
2022-09-11T05:03:40.238Z,22.07
2022-09-11T05:06:42.900Z,21.10
2022-09-11T05:09:47.997Z,20.00
2022-09-11T05:12:51.502Z,21.43
2022-09-11T05:16:00.242Z,21.47
2022-09-11T05:19:04.283Z,22.27
2022-09-11T05:22:07.915Z,22.33
2022-09-11T05:25:11.698Z,20.00
2022-09-11T05:28:13.601Z,20.60
2022-09-11T05:31:16.720Z,21.23
2022-09-11T05:34:18.602Z,24.33
2022-09-11T05:37:20.471Z,20.07
2022-09-11T05:40:23.342Z,18.00
2022-09-11T05:43:25.948Z,19.03
2022-09-11T05:46:27.767Z,21.30
2022-09-11T05:49:33.336Z,19.83
2022-09-11T05:52:36.697Z,18.10
2022-09-11T05:55:38.540Z,19.97
2022-09-11T05:58:40.413Z,21.60
2022-09-11T06:01:43.215Z,20.23
2022-09-11T06:04:56.524Z,20.80
2022-09-11T06:08:01.530Z,18.83
2022-09-11T06:11:06.715Z,21.33
2022-09-11T06:14:09.996Z,22.97
2022-09-11T06:17:13.137Z,17.43
2022-09-11T06:20:15.141Z,8.83
2022-09-11T06:23:21.250Z,9.53
2022-09-11T06:26:24.733Z,10.57
2022-09-11T06:29:26.478Z,8.03
2022-09-11T06:32:28.917Z,11.37
2022-09-11T06:35:30.620Z,11.37
2022-09-11T06:38:32.909Z,5.30
2022-09-11T06:41:35.994Z,7.53
2022-09-11T06:44:42.878Z,5.60
2022-09-11T06:47:47.320Z,7.20
2022-09-11T06:50:49.085Z,4.10
2022-09-11T06:53:58.172Z,6.40
2022-09-11T06:57:03.145Z,6.20
2022-09-11T07:00:05.004Z,6.20
2022-09-11T07:03:12.187Z,10.48
2022-09-11T07:06:14.907Z,5.47
2022-09-11T07:09:19.304Z,5.50
2022-09-11T07:12:28.825Z,2.95
2022-09-11T07:15:32.318Z,5.97
2022-09-11T07:18:36.351Z,3.10
2022-09-11T07:21:40.500Z,4.38
2022-09-11T07:24:42.265Z,5.95
2022-09-11T07:27:44.201Z,3.70
2022-09-11T07:30:46.312Z,4.28
2022-09-11T07:33:48.924Z,2.80
2022-09-11T07:36:51.926Z,3.70
2022-09-11T07:39:55.429Z,6.53
2022-09-11T07:43:00.008Z,2.10
2022-09-11T07:46:02.817Z,2.42
2022-09-11T07:49:05.601Z,7.90
2022-09-11T07:52:07.331Z,2.83
2022-09-11T07:55:17.307Z,4.82
2022-09-11T07:58:19.347Z,3.50
2022-09-11T08:01:26.022Z,3.40
2022-09-11T08:04:29.003Z,5.50
2022-09-11T08:07:33.149Z,2.53
2022-09-11T08:10:38.900Z,3.38
2022-09-11T08:13:40.677Z,4.72
2022-09-11T08:16:43.883Z,3.25
2022-09-11T08:19:45.719Z,2.78
2022-09-11T08:22:48.073Z,4.78
2022-09-11T08:25:51.006Z,3.05
2022-09-11T08:28:53.562Z,5.68
2022-09-11T08:31:58.081Z,4.82
2022-09-11T08:35:02.776Z,4.78
2022-09-11T08:38:04.463Z,2.90
2022-09-11T08:41:16.565Z,4.47
2022-09-11T08:44:23.525Z,3.92
2022-09-11T08:47:29.318Z,3.55
2022-09-11T08:50:40.072Z,2.28
2022-09-11T08:53:42.111Z,2.85
2022-09-11T08:56:45.550Z,13.35
2022-09-11T09:00:10.694Z,5.63
2022-09-11T09:03:38.851Z,2.40
2022-09-11T09:06:54.359Z,3.83
2022-09-11T09:10:14.389Z,3.90
2022-09-11T09:13:30.898Z,3.45
2022-09-11T09:16:49.122Z,3.25
2022-09-11T09:20:00.668Z,3.45
2022-09-11T09:23:06.824Z,3.47
2022-09-11T09:26:17.223Z,2.83
2022-09-11T09:29:21.159Z,4.57
2022-09-11T09:32:29.655Z,3.85
2022-09-11T09:35:41.584Z,4.13
2022-09-11T09:38:44.708Z,3.35
2022-09-11T09:42:05.210Z,5.03
2022-09-11T09:45:06.946Z,4.68
2022-09-11T09:48:10.194Z,3.03
2022-09-11T09:51:15.075Z,5.00
2022-09-11T09:54:17.475Z,5.82
2022-09-11T09:57:19.231Z,3.63
2022-09-11T10:00:21.262Z,3.55
2022-09-11T10:03:23.983Z,3.55
2022-09-11T10:06:26.374Z,4.15
2022-09-11T10:09:29.537Z,3.97
2022-09-11T10:12:32.193Z,4.22
2022-09-11T10:15:38.743Z,5.10
2022-09-11T10:18:43.940Z,4.50
2022-09-11T10:21:45.748Z,5.18
2022-09-11T10:24:52.259Z,4.80
2022-09-11T10:28:10.009Z,4.32
2022-09-11T10:31:13.662Z,4.78
2022-09-11T10:34:17.112Z,5.53
2022-09-11T10:37:21.506Z,5.30
2022-09-11T10:40:23.312Z,4.37
2022-09-11T10:43:26.882Z,4.30
2022-09-11T10:46:28.942Z,3.90
2022-09-11T10:49:30.529Z,4.60
2022-09-11T10:52:32.125Z,4.30
2022-09-11T10:55:39.057Z,3.73
2022-09-11T10:58:41.869Z,3.73
2022-09-11T11:01:43.787Z,6.47
2022-09-11T11:04:45.646Z,3.87
2022-09-11T11:08:03.419Z,6.20
2022-09-11T11:11:34.154Z,5.10
2022-09-11T11:14:45.799Z,4.57
2022-09-11T11:18:01.258Z,4.17
2022-09-11T11:21:27.230Z,4.90
2022-09-11T11:24:28.729Z,4.30
2022-09-11T11:27:39.350Z,4.30
2022-09-11T11:30:56.322Z,6.00
2022-09-11T11:34:03.690Z,6.50
2022-09-11T11:37:13.287Z,4.93
2022-09-11T11:40:21.437Z,5.00
2022-09-11T11:43:28.888Z,5.00
2022-09-11T11:46:35.511Z,5.70
2022-09-11T11:49:57.313Z,3.70
2022-09-11T11:53:02.049Z,5.17
2022-09-11T11:56:18.834Z,3.70
2022-09-11T11:59:31.249Z,3.73
2022-09-11T12:02:41.382Z,3.63
2022-09-11T12:05:42.953Z,5.90
2022-09-11T12:08:45.307Z,8.80
2022-09-11T12:11:49.711Z,3.97
2022-09-11T12:14:52.673Z,3.90
2022-09-11T12:18:17.612Z,8.87
2022-09-11T12:21:24.973Z,4.10
2022-09-11T12:24:45.101Z,3.83
2022-09-11T12:27:46.649Z,8.07
2022-09-11T12:31:07.726Z,4.37
2022-09-11T12:34:15.862Z,5.27
2022-09-11T12:37:26.763Z,5.97
2022-09-11T12:40:33.059Z,4.40
2022-09-11T12:43:37.446Z,5.57
2022-09-11T12:46:44.853Z,5.13
2022-09-11T12:49:57.801Z,3.40
2022-09-11T12:53:02.464Z,3.07
2022-09-11T12:56:07.574Z,3.53
2022-09-11T12:59:12.083Z,3.50
2022-09-11T13:02:35.595Z,3.83
2022-09-11T13:05:40.127Z,3.20
2022-09-11T13:09:00.631Z,3.33
2022-09-11T13:12:20.923Z,4.97
2022-09-11T13:15:33.489Z,4.33
2022-09-11T13:18:35.533Z,2.77
2022-09-11T13:21:38.671Z,3.57
2022-09-11T13:24:40.255Z,3.77
2022-09-11T13:27:43.490Z,3.23
2022-09-11T13:31:05.094Z,5.00
2022-09-11T13:34:13.363Z,7.57
2022-09-11T13:37:20.007Z,3.10
2022-09-11T13:40:35.135Z,4.00
2022-09-11T13:43:39.683Z,2.50
2022-09-11T13:46:52.076Z,2.83
2022-09-11T13:49:55.861Z,3.07
2022-09-11T13:52:57.531Z,5.33
2022-09-11T13:55:59.123Z,5.43
2022-09-11T13:59:20.659Z,2.67
2022-09-11T14:02:38.225Z,2.43
2022-09-11T14:05:47.319Z,6.00
2022-09-11T14:08:55.190Z,5.40
2022-09-11T14:12:01.876Z,2.50
2022-09-11T14:15:09.387Z,5.30
2022-09-11T14:18:37.498Z,2.17
2022-09-11T14:21:43.904Z,3.27
2022-09-11T14:24:54.698Z,2.90
2022-09-11T14:27:57.400Z,2.67
2022-09-11T14:31:09.141Z,2.20
2022-09-11T14:34:11.044Z,2.37
2022-09-11T14:37:12.894Z,2.30
2022-09-11T14:40:15.718Z,2.63
2022-09-11T14:43:21.167Z,2.30
2022-09-11T14:46:22.826Z,2.57
2022-09-11T14:49:24.686Z,2.83
2022-09-11T14:52:27.318Z,3.77
2022-09-11T14:55:29.018Z,3.43
2022-09-11T14:58:30.694Z,2.97
2022-09-11T15:01:33.343Z,3.70
2022-09-11T15:04:35.343Z,2.30
2022-09-11T15:07:37.159Z,2.57
2022-09-11T15:10:38.890Z,3.93
2022-09-11T15:13:57.901Z,3.60
2022-09-11T15:17:03.867Z,3.83
2022-09-11T15:20:07.926Z,2.90
2022-09-11T15:23:09.786Z,9.47
2022-09-11T15:26:11.979Z,6.70
2022-09-11T15:29:13.658Z,3.43
2022-09-11T15:32:15.437Z,2.83
2022-09-11T15:35:18.290Z,3.27
2022-09-11T15:38:20.832Z,3.83
2022-09-11T15:41:22.752Z,3.67
2022-09-11T15:44:25.302Z,1.97
2022-09-11T15:47:29.378Z,2.67
2022-09-11T15:50:30.958Z,2.00
2022-09-11T15:53:32.944Z,2.27
2022-09-11T15:56:36.063Z,2.13
2022-09-11T15:59:37.690Z,2.37
2022-09-11T16:02:39.280Z,4.40
2022-09-11T16:05:42.161Z,4.73
2022-09-11T16:08:43.806Z,4.30
2022-09-11T16:11:47.871Z,3.23
2022-09-11T16:14:50.353Z,2.60
2022-09-11T16:17:51.959Z,5.43
2022-09-11T16:20:58.049Z,3.37
2022-09-11T16:24:01.808Z,5.10
2022-09-11T16:27:05.929Z,4.83
2022-09-11T16:33:30.992Z,2.50
2022-09-11T16:36:38.483Z,3.63
2022-09-11T16:39:40.108Z,26.23
2022-09-11T16:42:41.691Z,9.37
2022-09-11T16:45:52.732Z,13.60
2022-09-11T16:48:57.817Z,3.57
2022-09-11T16:52:04.074Z,10.73
2022-09-11T16:55:06.515Z,7.20
2022-09-11T16:58:08.641Z,6.27
2022-09-11T17:01:11.723Z,4.53
2022-09-11T17:04:13.294Z,5.30
2022-09-11T17:07:15.302Z,32.40
2022-09-11T17:10:17.036Z,22.37
2022-09-11T17:13:19.423Z,40.03
2022-09-11T17:16:23.710Z,145.67
2022-09-11T17:19:25.300Z,152.30
2022-09-11T17:22:27.316Z,70.77
2022-09-11T17:25:28.873Z,40.57
2022-09-11T17:28:31.594Z,35.30
2022-09-11T17:31:33.401Z,25.30
2022-09-11T17:34:35.137Z,28.77
2022-09-11T17:37:37.978Z,17.40
2022-09-11T17:40:39.536Z,9.70
2022-09-11T17:43:42.747Z,8.73
2022-09-11T17:46:44.604Z,8.83
2022-09-11T17:49:46.304Z,8.00
2022-09-11T17:52:47.908Z,5.20
2022-09-11T17:55:49.554Z,3.47
2022-09-11T17:58:55.376Z,4.47
2022-09-11T18:01:59.087Z,6.33
2022-09-11T18:05:00.826Z,5.37
2022-09-11T18:08:02.619Z,5.30
2022-09-11T18:11:04.282Z,5.97
2022-09-11T18:14:06.298Z,4.80
2022-09-11T18:17:08.123Z,9.03
2022-09-11T18:20:09.806Z,4.67
2022-09-11T18:23:11.614Z,4.30
2022-09-11T18:26:22.107Z,7.87
2022-09-11T18:29:23.668Z,4.23
2022-09-11T18:32:26.251Z,7.23
2022-09-11T18:35:27.868Z,3.57
2022-09-11T18:38:32.932Z,5.07
2022-09-11T18:41:37.477Z,4.87
2022-09-11T18:44:39.107Z,4.47
2022-09-11T18:47:40.729Z,5.17
2022-09-11T18:50:42.350Z,6.80
2022-09-11T18:53:46.763Z,5.40
2022-09-11T18:56:49.453Z,7.53
2022-09-11T18:59:52.178Z,5.43
2022-09-11T19:02:55.135Z,4.73
2022-09-11T19:06:08.963Z,3.80
2022-09-11T19:09:12.330Z,8.00
2022-09-11T19:12:16.174Z,6.87
2022-09-11T19:15:17.847Z,6.53
2022-09-11T19:18:19.442Z,5.83
2022-09-11T19:21:22.457Z,4.73
2022-09-11T19:24:28.228Z,5.30
2022-09-11T19:27:31.744Z,7.33
2022-09-11T19:30:33.398Z,6.03
2022-09-11T19:33:36.257Z,4.23
2022-09-11T19:36:38.689Z,4.33
2022-09-11T19:39:41.301Z,2.47
2022-09-11T19:42:43.739Z,4.70
2022-09-11T19:45:45.850Z,6.53
2022-09-11T19:48:48.825Z,5.53
2022-09-11T19:51:51.559Z,1.90
2022-09-11T19:54:53.194Z,1.90
2022-09-11T19:57:54.789Z,2.77
2022-09-11T20:00:56.751Z,3.73
2022-09-11T20:04:00.567Z,2.40
2022-09-11T20:07:02.508Z,2.20
2022-09-11T20:10:04.665Z,2.67
2022-09-11T20:13:06.290Z,6.03
2022-09-11T20:16:09.604Z,2.23
2022-09-11T20:19:11.352Z,3.17
2022-09-11T20:22:13.027Z,3.13
2022-09-11T20:25:14.666Z,3.83
2022-09-11T20:28:16.289Z,5.73
2022-09-11T20:31:17.908Z,3.33
2022-09-11T20:34:20.181Z,4.77
2022-09-11T20:37:21.952Z,4.97
2022-09-11T20:40:23.582Z,3.70
2022-09-11T20:43:25.295Z,3.23
2022-09-11T20:46:27.081Z,4.00
2022-09-11T20:49:29.915Z,3.40
2022-09-11T20:52:34.040Z,4.27
2022-09-11T20:55:37.750Z,3.53
2022-09-11T20:58:39.749Z,3.50
2022-09-11T21:01:41.499Z,4.33
2022-09-11T21:04:43.374Z,6.47
2022-09-11T21:07:45.024Z,3.37
2022-09-11T21:10:46.638Z,3.20
2022-09-11T21:13:48.637Z,2.80
2022-09-11T21:16:51.821Z,3.07
2022-09-11T21:19:57.324Z,9.10
2022-09-11T21:22:59.155Z,4.70
2022-09-11T21:26:00.769Z,5.20
2022-09-11T21:29:03.857Z,3.20
2022-09-11T21:32:05.648Z,2.93
2022-09-11T21:35:07.468Z,3.40
2022-09-11T21:38:09.139Z,3.90
2022-09-11T21:41:11.894Z,5.83
2022-09-11T21:44:13.554Z,7.30
2022-09-11T21:47:15.227Z,3.13
2022-09-11T21:50:17.034Z,3.17
2022-09-11T21:53:18.945Z,8.23
2022-09-11T21:56:25.065Z,3.20
2022-09-11T21:59:26.756Z,3.30
2022-09-11T22:02:28.406Z,3.87
2022-09-11T22:05:30.213Z,6.47
2022-09-11T22:08:31.849Z,3.20
2022-09-11T22:11:33.412Z,5.53
2022-09-11T22:14:35.010Z,8.90
2022-09-11T22:17:36.574Z,7.57
2022-09-11T22:20:38.610Z,6.77
2022-09-11T22:23:40.340Z,5.83
2022-09-11T22:26:41.888Z,3.87
2022-09-11T22:29:46.936Z,3.37
2022-09-11T22:32:48.715Z,3.53
2022-09-11T22:35:50.475Z,8.53
2022-09-11T22:38:52.548Z,5.47
2022-09-11T22:41:54.217Z,5.33
2022-09-11T22:44:55.769Z,4.70
2022-09-11T22:47:58.104Z,6.23
2022-09-11T22:50:59.687Z,3.90
2022-09-11T22:54:03.045Z,6.90
2022-09-11T22:57:04.696Z,7.00
2022-09-11T23:00:08.132Z,3.83
2022-09-11T23:03:09.829Z,4.77
2022-09-11T23:06:30.671Z,3.80
2022-09-11T23:09:32.218Z,4.07
2022-09-11T23:12:33.898Z,4.50
2022-09-11T23:15:35.704Z,5.17
2022-09-11T23:18:37.262Z,4.47
2022-09-11T23:21:38.854Z,5.23
2022-09-11T23:24:40.465Z,5.17
2022-09-11T23:27:44.290Z,4.90
2022-09-11T23:30:45.928Z,4.73
2022-09-11T23:33:47.849Z,4.10
2022-09-11T23:36:49.478Z,3.33
2022-09-11T23:39:51.242Z,4.83
2022-09-11T23:42:52.817Z,3.87
2022-09-11T23:45:54.450Z,3.50
2022-09-11T23:48:56.147Z,6.97
2022-09-11T23:51:57.724Z,7.90
2022-09-11T23:54:59.336Z,4.50
2022-09-11T23:58:01.764Z,7.43
